Tiempo atmosférico en la estación meteorológica de Tomelloso, Ciudad Real (662 m.)



Fecha
DESCASC
Temp. máxima en grados centígrados (hora)
DESCASC
Temp. mínima en grados centígrados (hora)
DESCASC
Temp. media en grados centígrados
DESCASC
Racha de viento máxima en m/sg (hora)
DESCASC
Velocidad máxima media en intervalos de 10 minutos(hora)
DESCASC
Precipitaciones diarias en mm
DESCASC
Precipitaciones de 00:00 a 06:00 en mm
DESCASC
Precipitaciones de 06:00 a 12:00 en mm
DESCASC
Precipitaciones de 12:00 a 18:00 en mm
DESCASC
Precipitaciones de 18:00 a 24:00 en mm
DESCASC
28-12-2019 13.9 (16:10) -1.8 (-00:0) 6 3.89 (15:20) 2.78 (15:20) 0.2 0.2 0 0 0
23-01-2020 11.7 (15:50) -1.4 (-00:0) 5.1 5.28 (13:40) 4.17 (13:40) 0 0 0 0 0
22-01-2020 9.9 (15:20) 1.4 (00:00) 5.6 10.56 (10:10) 7.5 (12:50) 0 0 0 0 0
21-01-2020 5.1 (13:50) 0.5 (00:00) 2.8 12.5 (16:40) 8.61 (16:20) 6 0.2 3.4 2.4 0
20-01-2020 5.5 (17:40) -0.5 (-00:0) 2.5 12.22 (18:20) 9.17 (18:20) 0 0 0 0 0
18-01-2020 11.4 (13:20) 4.2 (00:00) 7.8 10.28 (12:40) 5.83 (16:10) 3 0 3 0 0
17-01-2020 13.6 (14:30) 5.6 (00:00) 9.6 9.72 (11:40) 5 (11:40) 0 0 0 0 0
16-01-2020 16.3 (16:10) 4.3 (00:00) 10.3 6.67 (13:30) 3.61 (22:20) 0 0 0 0 0
15-01-2020 14.5 (15:10) 2.2 (00:00) 8.4 9.44 (14:50) 4.44 (14:50) 0 0 0 0 0
14-01-2020 11 (15:00) -4.8 (-00:0) 3.1 6.94 (14:50) 3.61 (23:20) 0 0 0 0 0
13-01-2020 11.2 (15:00) -6.2 (-00:0) 2.5 6.67 (16:00) 3.33 (15:00) 0 0 0 0 0
12-01-2020 12.3 (16:00) -4.3 (-00:0) 4 4.17 (16:20) 1.94 (09:00) 0 0 0 0 0
11-01-2020 10.6 (16:10) -4.2 (-00:0) 3.2 4.44 (15:00) 2.78 (15:00) 0 0 0 0 0
10-01-2020 10.9 (14:10) 1.1 (00:00) 6 10.56 (14:20) 7.22 (14:20) 0 0 0 0 0
09-01-2020 11.8 (15:30) -1.9 (-00:0) 5 6.11 (16:30) 3.33 (16:30) 0.2 0 0.2 0 0
08-01-2020 13.2 (16:20) -2.6 (-00:0) 5.3 5.28 (20:10) 3.89 (20:10) 0 0 0 0 0
07-01-2020 14.1 (16:10) -2.9 (-00:0) 5.6 3.61 (15:40) 2.22 (02:10) 0 0 0 0 0
06-01-2020 12.2 (16:20) -4 (-00:0) 4.1 3.61 (16:00) 1.94 (20:30) 0 0 0 0 0
05-01-2020 11.1 (16:10) -4 (-00:0) 3.6 3.89 (13:30) 2.5 (13:20) 0.2 0 0.2 0 0
04-01-2020 10.4 (16:30) -0.5 (-00:0) 4.9 7.22 (16:10) 5 (16:20) 0 0 0 0 0
03-01-2020 5.6 (16:30) -2.5 (-00:0) 1.5 4.17 (23:59) 2.22 (23:59) 0 0 0 0 0
02-01-2020 13.1 (16:20) -4.2 (-00:0) 4.5 2.78 (16:30) 1.94 (01:30) -- 0 -- 0 0
01-01-2020 4.9 (15:50) -0.9 (-00:0) 2 2.5 (02:40) 1.67 (03:00) 0.2 0.2 0 0 0
31-12-2019 5.4 (16:30) -0.9 (-00:0) 2.3 4.44 (12:10) 3.33 (12:10) 0 0 0 0 0
29-12-2019 10.4 (16:00) -2.4 (-00:0) 4 6.39 (13:50) 4.72 (14:10) 0.2 0 0.2 0 0
27-12-2019 14.3 (15:50) 0.3 (00:00) 7.3 3.33 (02:30) 2.5 (02:50) 0 0 0 0 0
30-12-2019 10.2 (16:10) -3.1 (-00:0) 3.5 8.61 (10:40) 6.39 (11:00) 0.2 0 0 0 0.2
24-01-2020 11 (15:30) 2.9 (00:00) 7 5 (02:20) 3.89 (02:20) 0.4 0 0.2 0 0.2
25-01-2020 9.6 (16:30) 4.7 (00:00) 7.2 6.39 (13:30) 4.44 (13:30) 6 1 2.6 1.2 1.2
19-01-2020 10.2 (00:10) 0.5 (00:00) 5.3 12.5 (13:30) 8.61 (14:50) 26.8 11.8 0 6.6 8.4

Gráficas

Temp. máximas Temp. mínimas Temp. medias Precipitaciones Rachas de viento máximas Velocidades máximas media en intervalos de 10 minutos

Datos horarios

Fecha y hora oficial Temperatura (ºC) Velocidad del viento (km/h) Dirección del viento Racha (km/h) Dirección de racha Precipitación (mm) Presión (hPa) Tendencia (hPa) Humedad (%)
2020-01-25 23:00:00 7.2 8 Sudoeste 16 Sudoeste 0 941.5 1.1 92
2020-01-25 22:00:00 7.3 6 Sudoeste 12 Sudoeste 0 941.2 1.2 91
2020-01-25 21:00:00 7.5 7 Sudoeste 18 Sudoeste 0 940.8 1.5 91
2020-01-25 20:00:00 7.7 6 Sur 10 Sur 0 940.4 1.3 92
2020-01-25 19:00:00 7.9 5 Sudoeste 17 Sudoeste 1.2 940 0.8 91
2020-01-25 18:00:00 8.8 4 Sur 15 Sur 0 939.3 -0.2 88
2020-01-25 17:00:00 9.6 10 Sur 19 Sur 0 939.1 -1.3 80
2020-01-25 16:00:00 9.2 13 Sur 22 Sudoeste 0 939.2 -1.8 83
2020-01-25 15:00:00 8.7 11 Sur 19 Sur 0.2 939.5 -2.3 86
2020-01-25 14:00:00 7.9 13 Sur 23 Sur 0.8 940.4 -1.2 90
2020-01-25 13:00:00 8.1 13 Sur 19 Sur 0.2 941 -0.4 89
2020-01-25 12:00:00 7.2 9 Sur 14 Sudeste 1 941.8 1 94
2020-01-25 11:00:00 5.9 3 Este 7 Nordeste 1 941.6 1.1 98
2020-01-25 10:00:00 5.4 4 Norte 6 Norte 0.6 941.4 1 97
2020-01-25 09:00:00 4.9 4 Nordeste 8 Sudeste 0 940.8 0.4 96
2020-01-25 08:00:00 4.7 3 Sudeste 6 Sur 0 940.5 0.3 95
2020-01-25 07:00:00 5.2 5 Sur 8 Sur 0 940.4 -0.2 92
2020-01-25 06:00:00 5 4 Sudeste 8 Sur 0 940.4 -0.6 95
2020-01-25 05:00:00 6.2 6 Sur 13 Sur 0 940.2 -0.7 93
2020-01-25 04:00:00 5.8 5 Este 8 Sudeste 0.4 940.6 -0.9 95
2020-01-25 03:00:00 5.6 5 Este 9 Este 0.2 941 -0.8 95
2020-01-25 02:00:00 5.8 8 Nordeste 13 Sudeste 0 940.9 -1.1 93
2020-01-25 01:00:00 6.5 11 Sur 18 Sur 0.4 941.5 -0.5 90
2020-01-25 00:00:00 4.8 3 Este 8 Nordeste 0.2 941.8 -0.2 97
2020-01-24 23:00:00 4.3 4 Sudeste 9 Este 0 942 0.1 96
2020-01-24 22:00:00 4.9 5 Este 8 Este 0 942 0.5 96
2020-01-24 21:00:00 5.7 5 Este 10 Este 0 942 0.4 95
2020-01-24 20:00:00 6.3 8 Este 13 Este 0 941.9 0.1 94
2020-01-24 19:00:00 7.7 10 Nordeste 16 Nordeste 0 941.5 -0.3 91
2020-01-24 18:00:00 9.2 10 Nordeste 15 Nordeste 0 941.6 -0.6 87
2020-01-24 17:00:00 10 10 Este 15 Este 0 941.8 -1.2 83
2020-01-24 16:00:00 10.9 10 Este 16 Nordeste 0 941.8 -2 75
2020-01-24 15:00:00 10.4 6 Nordeste 16 Nordeste 0 942.2 -2.2 77
2020-01-24 14:00:00 10 6 Este 10 Nordeste 0 943 -1.2 72
2020-01-24 13:00:00 9.2 8 Este 12 Este 0 943.8 0.1 75
2020-01-24 12:00:00 8.3 8 Este 12 Este 0 944.4 0.7 81
2020-01-24 11:00:00 6.1 9 Este 11 Este 0 944.2 0.9 93
2020-01-24 10:00:00 4.5 5 Nordeste 7 Este 0 943.7 1 96
2020-01-24 09:00:00 3.9 5 Nordeste 8 Nordeste 0.2 943.7 1.1 97
2020-01-24 08:00:00 3.7 4 Este 10 Este 0 943.3 1 96
2020-01-24 07:00:00 3.8 8 Este 14 Este 0 942.7 0.6 96
2020-01-24 06:00:00 3.8 7 Nordeste 9 Nordeste 0 942.6 0.5 93
2020-01-24 05:00:00 4.6 3 Nordeste 17 Nordeste 0 942.3 0 92
2020-01-24 04:00:00 4.3 12 Este 18 Este 0 942.1 -0.3 93
2020-01-24 03:00:00 4.3 10 Este 18 Este 0 942.1 -0.3 93
2020-01-24 02:00:00 3.9 6 Este 15 Nordeste 0 942.3 0 94
2020-01-24 01:00:00 3.3 9 Nordeste 15 Nordeste 0 942.4 0.3 94
2020-01-24 00:00:00 3 10 Nordeste 18 Sudeste 0 942.4 0.6 91
2020-01-23 23:00:00 4.8 6 Este 11 Este 0 942.3 0.9 83
2020-01-23 22:00:00 6.4 9 Sudeste 17 Sur 0 942.1 1.1 79
2020-01-23 21:00:00 3.9 8 Nordeste 14 Sudeste 0 941.8 1.1 89
2020-01-23 20:00:00 5.4 9 Este 14 Este 0 941.4 0.9 85
2020-01-23 19:00:00 6.9 7 Este 13 Nordeste 0 941 0.6 86
2020-01-23 18:00:00 9.2 9 Nordeste 17 Nordeste 0 940.7 0.2 79
2020-01-23 17:00:00 10.8 10 Nordeste 13 Nordeste 0 940.5 -0.7 70
2020-01-23 16:00:00 11.4 10 Este 19 Nordeste 0 940.4 -1.4 65
2020-01-23 15:00:00 11.1 12 Nordeste 18 Este 0 940.5 -1.9 74
2020-01-23 14:00:00 10.1 12 Nordeste 19 Nordeste 0 941.2 -1 76
2020-01-23 13:00:00 8.5 12 Nordeste 16 Nordeste 0 941.8 -0.1 85
2020-01-23 12:00:00 7.1 7 Nordeste 14 Nordeste 0 942.4 1.1 84
2020-01-23 11:00:00 3.8 3 Este 8 Este 0 942.2 1.7 93
2020-01-23 10:00:00 0.9 5 Este 9 Este 0 941.9 1.6 99
2020-01-23 09:00:00 -0.7 6 Nordeste 9 Nordeste 0 941.3 1.1 99
2020-01-23 08:00:00 -1.3 6 Nordeste 9 Nordeste 0 940.5 0.1 98
2020-01-23 07:00:00 -1.1 7 Nordeste 9 Nordeste 0 940.3 -0.3 98
2020-01-23 06:00:00 -0.5 3 Este 6 Sudeste 0 940.2 -0.7 98
2020-01-23 05:00:00 -0.1 5 Este 9 Sudeste 0 940.4 -0.4 97
2020-01-23 04:00:00 0.3 4 Sudeste 12 Este 0 940.6 -0.3 98
2020-01-23 03:00:00 0.2 8 Este 11 Este 0 940.9 0.2 98
2020-01-23 02:00:00 -0.2 8 Este 10 Este 0 940.8 0.3 97
2020-01-23 01:00:00 0.5 4 Este 8 Este 0 940.9 0.8 97
2020-01-23 00:00:00 1.6 5 Este 12 Sudeste 0 940.7 0.7 97
2020-01-22 23:00:00 2.2 7 Sudeste 10 Sudeste 0 940.5 0.8 96
2020-01-22 22:00:00 2.9 7 Este 17 Este 0 940.1 0.7 94
2020-01-22 21:00:00 3.7 6 Este 10 Este 0 940 1.1 93
2020-01-22 20:00:00 4.8 8 Este 9 Este 0 939.7 0.9 91
2020-01-22 19:00:00 6.1 6 Este 19 Sudeste 0 939.4 0.2 87
2020-01-22 18:00:00 8.6 14 Sudeste 22 Este 0 938.9 -0.6 78
2020-01-22 17:00:00 9.4 14 Este 24 Este 0 938.8 -1.3 77
2020-01-22 16:00:00 9.3 18 Este 28 Este 0 939.2 -1.6 77
2020-01-22 15:00:00 9.7 20 Este 31 Este 0 939.5 -1.7 68
2020-01-22 14:00:00 9.2 20 Sudeste 37 Este 0 940.1 -0.9 71
2020-01-22 13:00:00 8.7 25 Este 38 Este 0 940.8 0 78
2020-01-22 12:00:00 9.3 26 Este 36 Este 0 941.2 0.6 77
2020-01-22 11:00:00 7.5 21 Este 38 Este 0 941 0.9 81
2020-01-22 10:00:00 5.8 18 Este 27 Este 0 940.8 1.4 89
2020-01-22 09:00:00 3.2 14 Este 23 Este 0 940.6 1.4 95
2020-01-22 08:00:00 3.1 18 Este 26 Este 0 940.1 0.8 95
2020-01-22 07:00:00 3.2 16 Este 27 Este 0 939.4 0 95
2020-01-22 06:00:00 3.5 17 Este 25 Este 0 939.2 -0.3 95
2020-01-22 05:00:00 4 17 Este 25 Este 0 939.3 0 92
2020-01-22 04:00:00 4 19 Este 30 Este 0 939.4 0 97
2020-01-22 03:00:00 3.5 13 Este 19 Nordeste 0 939.5 0 96
2020-01-22 02:00:00 3.5 18 Este 28 Este 0 939.3 0.3 95
2020-01-22 01:00:00 3 17 Este 23 Este 0 939.4 0.6 96
2020-01-22 00:00:00 3.2 16 Este 27 Este 0 939.5 1.4 93
2020-01-21 23:00:00 3.1 16 Este 27 Este 0 939 1 93
2020-01-21 22:00:00 3 19 Este 28 Este 0 938.8 1.2 93
2020-01-21 21:00:00 2.9 19 Este 31 Este 0 938.1 0.6 93
2020-01-21 20:00:00 3.3 16 Este 28 Este 0 938 1.1 93
2020-01-21 19:00:00 3.7 10 Este 24 Este 0 937.6 0.9 93
2020-01-21 18:00:00 4 18 Este 35 Nordeste 0 937.5 0.5 92
2020-01-21 17:00:00 4 21 Este 45 Este 0.2 936.9 0 92
2020-01-21 16:00:00 4.4 22 Nordeste 32 Nordeste 0.6 936.7 -1.5 94
2020-01-21 15:00:00 4.5 21 Nordeste 34 Este 0.2 937 -1.8 90
2020-01-21 14:00:00 5 20 Este 35 Este 0 936.9 -1.9 90
2020-01-21 13:00:00 4.3 17 Nordeste 28 Nordeste 1.4 938.2 -0.6 90
2020-01-21 12:00:00 4.3 18 Nordeste 37 Nordeste 0 938.8 -0.2 90
2020-01-21 11:00:00 3.6 13 Norte 20 Nordeste 0.4 938.8 -0.4 87
2020-01-21 10:00:00 1.7 10 Nordeste 20 Norte 2 938.8 -0.2 94
2020-01-21 09:00:00 0.6 10 Norte 16 Norte 0.6 939 -0.6 96
2020-01-21 08:00:00 1.7 8 Norte 24 Norte 0.4 939.2 -1.2 90
2020-01-21 07:00:00 2.6 13 Norte 28 Norte 0 939 -1.7 83
2020-01-21 06:00:00 2.7 9 Norte 17 Norte 0 939.6 -1.7 88
2020-01-21 05:00:00 3.1 13 Nordeste 18 Nordeste 0 940.4 -1.3 88
2020-01-21 04:00:00 2.9 16 Este 37 Nordeste 0 940.7 -1.4 90
2020-01-21 03:00:00 3.6 21 Este 37 Nordeste 0 941.3 -0.9 85
2020-01-21 02:00:00 3.8 19 Nordeste 27 Nordeste 0.2 941.7 -0.6 85
2020-01-21 01:00:00 3.8 8 Nordeste 20 Nordeste 0 942.1 0 83
2020-01-21 00:00:00 3.9 17 Nordeste 35 Nordeste 0 942.2 0.3 82
2020-01-20 23:00:00 4.3 23 Nordeste 42 Nordeste 0 942.3 0.4 79
2020-01-20 22:00:00 4.4 25 Nordeste 38 Nordeste 0 942.1 0.6 78
2020-01-20 21:00:00 4.2 18 Nordeste 28 Nordeste 0 941.9 0.8 82
2020-01-20 20:00:00 4.5 22 Nordeste 43 Nordeste 0 941.9 1 80
2020-01-20 19:00:00 4.9 28 Nordeste 44 Nordeste 0 941.5 0.5 79
2020-01-20 18:00:00 5.3 21 Nordeste 36 Nordeste 0 941.1 0 79
2020-01-20 17:00:00 4.8 15 Nordeste 29 Este 0 940.9 -0.4 83
2020-01-20 16:00:00 4.6 22 Nordeste 41 Este 0 941 -1.1 82
2020-01-20 15:00:00 4.7 24 Este 41 Nordeste 0 941.1 -1.4 82
2020-01-20 14:00:00 5 24 Nordeste 42 Nordeste 0 941.3 -1.3 79
2020-01-20 13:00:00 3.9 19 Nordeste 28 Nordeste 0 942.1 -0.3 77
2020-01-20 12:00:00 2.7 16 Norte 30 Norte 0 942.5 0.2 78
2020-01-20 11:00:00 0.2 18 Norte 35 Norte 0 942.6 0.5 93
2020-01-20 10:00:00 -0.4 22 Norte 34 Norte 0 942.4 0.4 95
2020-01-20 09:00:00 0.7 21 Nordeste 34 Nordeste 0 942.3 0 78
2020-01-20 08:00:00 1.4 22 Norte 35 Norte 0 942.1 -0.4 67
2020-01-20 07:00:00 1.3 19 Norte 28 Norte 0 942 -0.9 70
2020-01-20 06:00:00 1.4 18 Norte 32 Norte 0 942.3 -0.9 69
2020-01-20 05:00:00 1.4 21 Norte 32 Norte 0 942.5 -1 70
2020-01-20 04:00:00 1.2 14 Norte 34 Norte 0 942.9 -1 76
2020-01-20 03:00:00 1.4 23 Norte 38 Norte 0 943.2 -0.8 74
2020-01-20 02:00:00 1.8 20 Norte 32 Norte 0 943.5 -0.6 74
2020-01-20 01:00:00 2.2 21 Norte 35 Norte 0 943.9 0.1 71
2020-01-20 00:00:00 2.2 19 Norte 29 Norte 0 944 0.1 74
2020-01-19 23:00:00 1.6 10 Norte 27 Norte 0 944.1 0.2 92
2020-01-19 22:00:00 1.6 20 Norte 37 Norte 0.6 943.8 0.2 95
2020-01-19 21:00:00 1.5 17 Nordeste 28 Norte 1.6 943.9 1.2 97
2020-01-19 20:00:00 1.1 13 Nordeste 20 Nordeste 2.6 943.9 1.8 98
2020-01-19 19:00:00 1.1 15 Nordeste 27 Nordeste 3.6 943.6 2 96
2020-01-19 18:00:00 3.5 14 Este 29 Nordeste 2.6 942.7 1.7 93
2020-01-19 17:00:00 4.1 15 Nordeste 35 Nordeste 1.4 942.1 1.3 93
2020-01-19 16:00:00 4.7 22 Nordeste 39 Nordeste 1.6 941.6 0.4 91
2020-01-19 15:00:00 5.3 27 Norte 45 Norte 1 941 -0.9 88
2020-01-19 14:00:00 6.8 24 Norte 45 Norte 0 940.8 -1.2 79
2020-01-19 13:00:00 6.9 22 Norte 42 Norte 0 941.2 -0.5 79
2020-01-19 12:00:00 6.3 17 Norte 36 Norte 0 941.9 0.4 86
2020-01-19 11:00:00 5 9 Noroeste 23 Noroeste 0 942 0.5 92
2020-01-19 10:00:00 4.4 7 Noroeste 17 Noroeste 0 941.7 0.1 94
2020-01-19 09:00:00 3 3 Oeste 9 Noroeste 0 941.5 -0.1 96
2020-01-19 08:00:00 3.1 5 Noroeste 18 Norte 0 941.5 -0.5 95
2020-01-19 07:00:00 4.1 8 Noroeste 20 Noroeste 0 941.6 -0.9 95
2020-01-19 06:00:00 4.8 7 Noroeste 16 Noroeste 0 941.6 -1.1 94
2020-01-19 05:00:00 5.1 7 Noroeste 16 Noroeste 0 942 -0.5 95
2020-01-19 04:00:00 5.3 7 Sudoeste 13 Norte 0 942.5 -0.8 94
2020-01-19 03:00:00 5.4 7 Norte 33 Oeste 4.4 942.7 -0.8 94
2020-01-19 02:00:00 7.2 12 Oeste 23 Noroeste 3 942.5 -1.4 94
2020-01-19 01:00:00 7 6 Oeste 39 Noroeste 4.4 943.3 -1.4 94
2020-01-19 00:00:00 10 12 Oeste 28 Sudoeste 0 943.5 -0.2 91
2020-01-18 23:00:00 10.2 12 Sudoeste 23 Sudoeste 0 943.9 -1.4 90
2020-01-18 22:00:00 9.9 10 Sudoeste 35 Sudoeste 0 944.7 -1 91
2020-01-18 21:00:00 9.9 20 Sudoeste 35 Sudoeste 0 943.7 -2.4 90
2020-01-18 20:00:00 9.8 14 Sudoeste 24 Sudoeste 0 945.3 -1.8 90
2020-01-18 19:00:00 9.6 13 Sudoeste 36 Sudoeste 0 945.7 -2.2 90
2020-01-18 18:00:00 9.3 20 Sudoeste 35 Sudoeste 0 946.1 -2.5 89
2020-01-18 17:00:00 9.3 18 Sudoeste 36 Sudoeste 0 947.1 -2.6 91
2020-01-18 16:00:00 10.2 19 Sudoeste 36 Sudoeste 0 947.9 -3.1 84
2020-01-18 15:00:00 10.4 19 Sudoeste 34 Sudoeste 0 948.6 -3.9 81
2020-01-18 14:00:00 11 18 Sudoeste 34 Sudoeste 0 949.7 -3.3 75
2020-01-18 13:00:00 10.8 18 Sudoeste 37 Sudoeste 0 951 -1.6 80
2020-01-18 12:00:00 9.3 13 Sudoeste 24 Sur 0.2 952.5 -0.7 86
2020-01-18 11:00:00 7.6 5 Sudeste 10 Sur 0 953 -0.9 95
2020-01-18 10:00:00 6.6 7 Sur 17 Sur 1.2 952.6 -0.7 95
2020-01-18 09:00:00 4.9 11 Sur 14 Sur 1.4 953.2 0.9 96
2020-01-18 08:00:00 4.7 5 Sudeste 8 Sudeste 0.2 953.9 1.4 94
2020-01-18 07:00:00 4.4 3 Norte 5 Norte 0 953.3 0.3 92
2020-01-18 06:00:00 4.3 3 Sudeste 9 Este 0 952.3 -1 92
2020-01-18 05:00:00 4.5 3 Este 9 Norte 0 952.5 -0.8 90
2020-01-18 04:00:00 5.9 4 Sur 9 Sudoeste 0 953 -1.5 85
2020-01-18 03:00:00 6 6 Sudoeste 13 Sur 0 953.3 -1.6 86
2020-01-18 02:00:00 5.6 8 Sur 12 Sur 0 953.3 -1.6 88
2020-01-18 01:00:00 6.1 6 Sudoeste 12 Sudoeste 0 954.5 -0.3 87
2020-01-18 00:00:00 6.7 6 Sudoeste 13 Sudoeste 0 954.9 0.2 85
2020-01-17 23:00:00 6.2 7 Sudoeste 9 Sur 0 954.9 0.7 85
2020-01-17 22:00:00 5.9 3 Oeste 6 Nordeste 0 954.8 0.8 86
2020-01-17 21:00:00 6.1 5 Nordeste 13 Sudoeste 0 954.7 0.9 82
2020-01-17 20:00:00 8.8 7 Sudoeste 13 Sudoeste 0 954.2 1 74
2020-01-17 19:00:00 9.8 8 Oeste 14 Oeste 0 954 1 69
2020-01-17 18:00:00 11.3 7 Oeste 18 Oeste 0 953.8 0.6 62
2020-01-17 17:00:00 12.6 11 Oeste 24 Oeste 0 953.2 -0.3 55
2020-01-17 16:00:00 13.2 11 Oeste 25 Oeste 0 953 -1.1 53
2020-01-17 15:00:00 12.8 12 Oeste 30 Oeste 0 953.2 -1.7 54
2020-01-17 14:00:00 12.9 14 Oeste 34 Oeste 0 953.5 -0.7 56
2020-01-17 13:00:00 12.5 17 Oeste 32 Sudoeste 0 954.1 0.4 60
2020-01-17 12:00:00 11.8 15 Oeste 35 Oeste 0 954.9 1.9 67
2020-01-17 11:00:00 10.5 13 Oeste 31 Sudoeste 0 954.2 1.3 68
2020-01-17 10:00:00 9 7 Sudoeste 15 Sudoeste 0 953.7 1.9 61
2020-01-17 09:00:00 7.8 6 Oeste 14 Oeste 0 953 1.5 64
2020-01-17 08:00:00 8 6 Oeste 13 Sudoeste 0 952.9 1.8 61
2020-01-17 07:00:00 7.9 7 Sudoeste 18 Sudoeste 0 951.8 0.3 58
2020-01-17 06:00:00 7.7 9 Sudoeste 21 Sudoeste 0 951.5 0 58
2020-01-17 05:00:00 7.6 6 Sudoeste 18 Sudoeste 0 951.1 0 56
2020-01-17 04:00:00 7.9 8 Sudoeste 19 Sudoeste 0 951.5 0.5 55
2020-01-17 03:00:00 6.4 8 Oeste 19 Sudoeste 0 951.5 0.5 59
2020-01-17 02:00:00 7.3 12 Sudoeste 22 Sudoeste 0 951.1 0.4 54
2020-01-17 01:00:00 7.8 11 Sudoeste 21 Sudoeste 0 951 0.5 54
2020-01-17 00:00:00 7.4 11 Sudoeste 22 Sur 0 951 0.6 57
2020-01-16 23:00:00 6.8 9 Sur 20 Sur 0 950.7 0.9 60
2020-01-16 22:00:00 7.8 9 Sur 17 Sur 0 950.5 1 57
2020-01-16 21:00:00 8.9 8 Sudoeste 19 Sudoeste 0 950.4 1.4 53
2020-01-16 20:00:00 9.5 11 Sur 16 Sur 0 949.8 0.8 53
2020-01-16 19:00:00 10.7 5 Sudoeste 11 Oeste 0 949.5 0.7 48
2020-01-16 18:00:00 13.3 6 Oeste 19 Sudoeste 0 949 -0.2 39
2020-01-16 17:00:00 15 12 Sudoeste 22 Sudoeste 0 949 -0.8 34
2020-01-16 16:00:00 16.1 6 Sudoeste 22 Oeste 0 948.8 -1.7 34
2020-01-16 15:00:00 16 10 Oeste 21 Oeste 0 949.2 -2.1 34
2020-01-16 14:00:00 15.4 9 Sudoeste 24 Sudoeste 0 949.8 -1.6 37
2020-01-16 13:00:00 13.5 8 Sudoeste 14 Sudoeste 0 950.5 -0.5 53
2020-01-16 12:00:00 11.8 4 Noroeste 10 Oeste 0 951.3 0.5 64
2020-01-16 11:00:00 10.5 4 Sudoeste 14 Sur 0 951.4 0.8 63
2020-01-16 10:00:00 7.6 10 Sur 16 Sur 0 951 0.7 72
2020-01-16 09:00:00 5.1 12 Sur 16 Sur 0 950.8 0.6 82
2020-01-16 08:00:00 4.7 11 Sur 15 Sur 0 950.6 0.1 82
2020-01-16 07:00:00 5.5 10 Sur 16 Sur 0 950.3 -0.2 79
2020-01-16 06:00:00 6 10 Sur 17 Sur 0 950.2 -0.4 77
2020-01-16 05:00:00 6.2 8 Sur 15 Sur 0 950.5 0.1 76
2020-01-16 04:00:00 6.6 9 Sur 16 Sur 0 950.5 -0.3 74
2020-01-16 03:00:00 6.2 9 Sur 14 Sudoeste 0 950.6 -0.3 74
2020-01-16 02:00:00 6.9 8 Sur 12 Sudeste 0 950.4 -0.5 73
2020-01-16 01:00:00 8.3 7 Sur 13 Sur 0 950.8 0.1 70
2020-01-16 00:00:00 8.5 9 Sur 13 Sur 0 950.9 0.6 72
2020-01-15 23:00:00 8.9 6 Sudoeste 10 Sudoeste 0 950.9 0.7 70
2020-01-15 22:00:00 8.6 4 Sur 12 Sur 0 950.7 0.9 77
2020-01-15 21:00:00 9.5 3 Sur 6 Sudoeste 0 950.3 1 75
2020-01-15 20:00:00 10.6 4 Sudoeste 11 Oeste 0 950.2 1.3 70
2020-01-15 19:00:00 11.2 3 Oeste 12 Oeste 0 949.8 1.3 67
2020-01-15 18:00:00 12.1 7 Oeste 16 Oeste 0 949.3 0.9 62
2020-01-15 17:00:00 13.1 7 Oeste 30 Oeste 0 948.9 0.3 56
2020-01-15 16:00:00 14.2 12 Oeste 27 Sudoeste 0 948.5 -0.6 50
2020-01-15 15:00:00 14.2 15 Oeste 34 Oeste 0 948.4 -1 48
2020-01-15 14:00:00 13 13 Oeste 26 Sudoeste 0 948.6 -0.2 53
2020-01-15 13:00:00 12.6 12 Sudoeste 21 Sudoeste 0 949.1 1.1 53
2020-01-15 12:00:00 11.8 9 Sudoeste 19 Sudoeste 0 949.4 1.8 58
2020-01-15 11:00:00 9.4 9 Sudoeste 19 Sudoeste 0 948.8 1.9 69
2020-01-15 10:00:00 5.7 15 Sudoeste 21 Sudoeste 0 948 1.3 81
2020-01-15 09:00:00 3.2 9 Sudoeste 18 Sudoeste 0 947.6 1 87
2020-01-15 08:00:00 3.1 14 Sur 22 Sur 0 946.9 0.4 87
2020-01-15 07:00:00 2.8 11 Sur 16 Sur 0 946.7 0 88
2020-01-15 06:00:00 3.3 8 Sudoeste 13 Sur 0 946.6 -0.1 87
2020-01-15 05:00:00 4.2 7 Sudoeste 13 Sudoeste 0 946.5 0 84
2020-01-15 04:00:00 3.8 7 Sudoeste 15 Sudoeste 0 946.7 0.2 84
2020-01-15 03:00:00 2.2 6 Sudoeste 12 Sudoeste 0 946.7 0.2 88
2020-01-15 02:00:00 3.3 7 Sudoeste 14 Sudoeste 0 946.5 0 85
2020-01-15 01:00:00 3.5 7 Sur 15 Sudoeste 0 946.5 0 83
2020-01-15 00:00:00 4.1 12 Sudoeste 21 Sudoeste 0 946.5 0.1 81
2020-01-14 23:00:00 4 9 Sudoeste 15 Sur 0 946.5 0.5 82
2020-01-14 22:00:00 4.1 9 Sudoeste 15 Sur 0 946.5 0.7 81
2020-01-14 21:00:00 4 9 Sur 13 Sur 0 946.4 0.9 80
2020-01-14 20:00:00 3.6 5 Sur 6 Sur 0 946 0.8 82
2020-01-14 19:00:00 5.7 5 Oeste 11 Oeste 0 945.8 0.6 74
2020-01-14 18:00:00 7.8 6 Oeste 20 Oeste 0 945.5 0.3 66
2020-01-14 17:00:00 9.5 10 Oeste 23 Oeste 0 945.2 -0.3 56
2020-01-14 16:00:00 10.7 10 Oeste 23 Oeste 0 945.2 -1.1 54
2020-01-14 15:00:00 10.9 9 Oeste 25 Sudoeste 0 945.2 -1.7 56
2020-01-14 14:00:00 10.2 10 Oeste 23 Oeste 0 945.5 -1.4 59
2020-01-14 13:00:00 9.4 9 Oeste 17 Oeste 0 946.3 -0.4 64
2020-01-14 12:00:00 7.7 7 Sudoeste 12 Sudoeste 0 946.9 0.5 69
2020-01-14 11:00:00 5 3 Sur 5 Nordeste 0 946.9 0.6 78
2020-01-14 10:00:00 -0.3 3 Sudeste 4 Sur 0 946.7 0.6 91
2020-01-14 09:00:00 -3.6 0 Calma 5 Nordeste 0 946.4 0.5 96
2020-01-14 08:00:00 -3.9 3 Este 7 Norte 0 946.3 0.2 96
2020-01-14 07:00:00 -4.3 3 Sudeste 9 Nordeste 0 946.1 0 95
2020-01-14 06:00:00 -4.3 4 Este 8 Nordeste 0 945.9 -0.4 93
2020-01-14 05:00:00 -3.5 0 Calma 8 Norte 0 946.1 -0.6 93
2020-01-14 04:00:00 -2.6 3 Norte 10 Norte 0 946.1 -1 92
2020-01-14 03:00:00 -0.5 5 Sudoeste 8 Sudoeste 0 946.3 -1 93
2020-01-14 02:00:00 -1.5 4 Sur 9 Norte 0 946.7 -0.2 88
2020-01-14 01:00:00 2.1 5 Sudoeste 13 Sudoeste 0 947.1 0.1 83
2020-01-14 00:00:00 2.6 6 Sudoeste 12 Sudoeste 0 947.3 0 81
2020-01-13 23:00:00 2.6 9 Sur 15 Sur 0 946.9 -0.3 81
2020-01-13 22:00:00 3.6 7 Sudoeste 14 Sudoeste 0 947 0 76
2020-01-13 21:00:00 4.3 7 Sudoeste 10 Sudoeste 0 947.3 0.1 75
2020-01-13 20:00:00 4.7 6 Sudoeste 10 Sudoeste 0 947.2 0.1 74
2020-01-13 19:00:00 6.1 5 Sudoeste 8 Sudoeste 0 947 -0.5 67
2020-01-13 18:00:00 8.4 3 Oeste 17 Oeste 0 947.2 0 56
2020-01-13 17:00:00 9.8 10 Oeste 21 Oeste 0 947.1 -0.9 48
2020-01-13 16:00:00 10.6 9 Oeste 24 Noroeste 0 947.5 -1.4 50
2020-01-13 15:00:00 11 12 Oeste 23 Oeste 0 947.2 -2.6 44
2020-01-13 14:00:00 9.9 10 Sudoeste 18 Sudoeste 0 948 -2.2 52
2020-01-13 13:00:00 8.1 6 Oeste 12 Oeste 0 948.9 -0.7 55
2020-01-13 12:00:00 6.4 4 Sudoeste 8 Sudoeste 0 949.8 0.3 59
2020-01-13 11:00:00 3.6 3 Noroeste 5 Nordeste 0 950.2 0.5 69
2020-01-13 10:00:00 -1 3 Sur 4 Sur 0 949.6 -0.2 87
2020-01-13 09:00:00 -3.6 4 Sur 8 Sur 0 949.5 -0.1 91
2020-01-13 08:00:00 -5.9 3 Sur 8 Sur 0 949.7 -0.1 92
2020-01-13 07:00:00 -5.7 2 Sur 5 Noroeste 0 949.8 -0.8 94
2020-01-13 06:00:00 -5.3 2 Noroeste 4 Norte 0 949.6 -0.9 93
2020-01-13 05:00:00 -5 2 Nordeste 4 Norte 0 949.8 -0.9 92
2020-01-13 04:00:00 -4.2 0 Calma 6 Sur 0 950.6 -0.9 92
2020-01-13 03:00:00 -4 4 Sur 8 Sur 0 950.5 -1.6 90
2020-01-13 02:00:00 -3.1 4 Sudoeste 8 Sur 0 950.7 -1.5 89
2020-01-13 01:00:00 -2.8 3 Sur 6 Sudoeste 0 951.5 -0.6 87
2020-01-13 00:00:00 -1.9 3 Sudoeste 7 Sur 0 952.1 -0.1 86
2020-01-12 23:00:00 -1.7 3 Sur 6 Sur 0 952.2 -0.2 84
2020-01-12 22:00:00 -0.3 3 Sur 6 Sur 0 952.1 0.3 82
2020-01-12 21:00:00 1.2 5 Sur 12 Nordeste 0 952.2 1 75
2020-01-12 20:00:00 3.1 5 Sur 6 Sur 0 952.4 1.3 70
2020-01-12 19:00:00 5.3 2 Sudoeste 6 Noroeste 0 951.8 0.5 62
2020-01-12 18:00:00 8 3 Noroeste 10 Oeste 0 951.2 -0.3 54
2020-01-12 17:00:00 10.6 4 Oeste 15 Oeste 0 951.1 -0.9 44
2020-01-12 16:00:00 12.3 4 Oeste 13 Oeste 0 951.3 -1.6 38
2020-01-12 15:00:00 11.7 4 Oeste 14 Oeste 0 951.5 -2.5 43
2020-01-12 14:00:00 11 4 Oeste 12 Noroeste 0 952 -2.3 47
2020-01-12 13:00:00 9 6 Sudoeste 10 Sudoeste 0 952.9 -0.7 58
2020-01-12 12:00:00 7.3 3 Sudoeste 7 Sudoeste 0 954 0.7 65
2020-01-12 11:00:00 5 2 Oeste 6 Oeste 0 954.3 1 70
2020-01-12 10:00:00 -0.3 0 Calma 7 Sudoeste 0 953.6 0.5 87
2020-01-12 09:00:00 -2.2 7 Sur 9 Sudoeste 0 953.3 0.4 91
2020-01-12 08:00:00 -3 5 Sur 6 Sur 0 953.3 0.3 90
2020-01-12 07:00:00 -3.1 5 Sur 8 Sur 0 953.1 -0.2 93
2020-01-12 06:00:00 -3 3 Sur 6 Sudoeste 0 952.9 -0.3 92
2020-01-12 05:00:00 -2.6 5 Sur 7 Sur 0 953 -0.1 93
2020-01-12 04:00:00 -3.8 0 Calma 6 Noroeste 0 953.3 0.2 94
2020-01-12 03:00:00 -2.9 0 Calma 5 Sudoeste 0 953.2 -0.2 94
2020-01-12 02:00:00 -2.4 3 Sur 5 Sudoeste 0 953.1 -0.4 93
2020-01-12 01:00:00 -2.3 4 Sur 6 Sur 0 953.1 -0.3 89
2020-01-12 00:00:00 -1.1 5 Sur 6 Sur 0 953.4 0.2 86
2020-01-11 23:00:00 -0.3 4 Sudoeste 6 Sudeste 0 953.5 0.6 86
2020-01-11 22:00:00 1 4 Sur 7 Sudeste 0 953.4 0.8 81
2020-01-11 21:00:00 4 5 Sudoeste 9 Sur 0 953.2 1.1 74
2020-01-11 20:00:00 2.7 3 Norte 6 Norte 0 952.9 0.8 77
2020-01-11 19:00:00 5.2 5 Norte 7 Noroeste 0 952.6 0.5 69
2020-01-11 18:00:00 7.3 4 Norte 10 Nordeste 0 952.1 -0.2 61
2020-01-11 17:00:00 9.8 7 Nordeste 12 Nordeste 0 952.1 -0.4 54
2020-01-11 16:00:00 10.5 7 Norte 15 Norte 0 952.1 -1.4 51
2020-01-11 15:00:00 10.2 10 Norte 16 Norte 0 952.3 -2.1 54
2020-01-11 14:00:00 9.4 7 Nordeste 13 Nordeste 0 952.5 -2.1 58
2020-01-11 13:00:00 7.2 7 Este 14 Nordeste 0 953.5 -0.5 65
2020-01-11 12:00:00 4.7 6 Nordeste 11 Nordeste 0 954.4 0.9 74
2020-01-11 11:00:00 2.2 4 Este 6 Este 0 954.6 1.6 82
2020-01-11 10:00:00 0 3 Sudeste 5 Sudeste 0 954 1.4 87
2020-01-11 09:00:00 -3.3 3 Oeste 6 Oeste 0 953.5 1.1 95
2020-01-11 08:00:00 -3.8 0 Calma 7 Sur 0 953 0.4 94
2020-01-11 07:00:00 -3.2 4 Sur 7 Sur 0 952.6 0.2 93
2020-01-11 06:00:00 -3.2 3 Sur 4 Sur 0 952.4 0.1 93
2020-01-11 05:00:00 -2.7 2 Sudoeste 10 Oeste 0 952.6 0.6 93
2020-01-11 04:00:00 -2.5 2 Oeste 5 Noroeste 0 952.4 0.5 92
2020-01-11 03:00:00 -1.3 4 Norte 5 Norte 0 952.3 0.3 88
2020-01-11 02:00:00 0 2 Sudeste 7 Sudeste 0 952 0 87
2020-01-11 01:00:00 0.5 7 Sudeste 9 Sudeste 0 951.9 0.5 82
2020-01-11 00:00:00 1.4 4 Sudeste 11 Este 0 952 0.9 80
2020-01-10 23:00:00 1.4 3 Este 8 Nordeste 0 952 1.5 80
2020-01-10 22:00:00 2.6 5 Este 19 Nordeste 0 951.4 1.5 75
2020-01-10 21:00:00 4.2 12 Nordeste 18 Norte 0 951.1 1.8 70
2020-01-10 20:00:00 5.8 15 Norte 27 Norte 0 950.5 2.1 64
2020-01-10 19:00:00 7.7 17 Norte 25 Norte 0 949.9 1.3 56
2020-01-10 18:00:00 9 18 Norte 33 Norte 0 949.3 0.9 51
2020-01-10 17:00:00 10.3 22 Norte 31 Norte 0 948.4 -0.8 46
2020-01-10 16:00:00 10.7 19 Norte 35 Norte 0 948.6 -1.1 51
2020-01-10 15:00:00 10.7 22 Norte 38 Norte 0 948.4 -1.7 49
2020-01-10 14:00:00 10.8 21 Norte 37 Norte 0 949.2 -1.1 51
2020-01-10 13:00:00 9.8 23 Nordeste 34 Norte 0 949.7 -0.3 56
2020-01-10 12:00:00 8.1 11 Norte 21 Norte 0 950.1 0.6 70
2020-01-10 11:00:00 6.8 14 Norte 26 Norte 0 950.3 1.4 77
2020-01-10 10:00:00 4.6 5 Noroeste 11 Noroeste 0 950 1.9 86
2020-01-10 09:00:00 3.7 5 Norte 13 Norte 0 949.5 1.7 88
2020-01-10 08:00:00 4.5 4 Noroeste 12 Noroeste 0 948.9 0.8 88
2020-01-10 07:00:00 4.9 4 Sudoeste 9 Sudoeste 0 948.1 0 90
2020-01-10 06:00:00 4.6 7 Sudoeste 15 Sudoeste 0 947.8 -1 89
2020-01-10 05:00:00 4.2 8 Sudoeste 14 Sudoeste 0 948.1 0.2 90
2020-01-10 04:00:00 3.1 6 Sur 11 Sudoeste 0 948.1 -0.1 94
2020-01-10 03:00:00 2.3 4 Noroeste 13 Norte 0 948.8 0.5 92
2020-01-10 02:00:00 3.7 8 Sur 16 Sudoeste 0 947.9 -1.2 90
2020-01-10 01:00:00 5.1 8 Sudoeste 18 Sudoeste 0 948.2 -0.8 86
2020-01-10 00:00:00 5.2 8 Sudoeste 15 Sudoeste 0 948.3 -0.1 85
2020-01-09 23:00:00 5.7 5 Noroeste 16 Sudoeste 0 949.1 1 82
2020-01-09 22:00:00 6.1 4 Oeste 14 Sudoeste 0 949 0.5 81
2020-01-09 21:00:00 7 9 Sudoeste 16 Oeste 0 948.4 0 78
2020-01-09 20:00:00 6.5 8 Sudoeste 13 Sur 0 948.1 -0.2 81
2020-01-09 19:00:00 7.3 5 Sudoeste 12 Oeste 0 948.5 0.2 80
2020-01-09 18:00:00 8.9 6 Oeste 17 Oeste 0 948.4 0.1 71
2020-01-09 17:00:00 10.3 10 Oeste 22 Oeste 0 948.3 -0.7 65
2020-01-09 16:00:00 11.8 8 Oeste 17 Oeste 0 948.3 -1.7 61
2020-01-09 15:00:00 11 8 Sudoeste 15 Sur 0 948.3 -2.2 63
2020-01-09 14:00:00 9.5 7 Oeste 17 Oeste 0 949 -1.4 67
2020-01-09 13:00:00 8 5 Oeste 14 Noroeste 0 950 -0.3 73
2020-01-09 12:00:00 7.1 5 Noroeste 12 Noroeste 0 950.5 0.8 77
2020-01-09 11:00:00 4.7 2 Este 6 Este 0 950.4 0.8 81
2020-01-09 10:00:00 1.9 2 Noroeste 6 Sudeste 0.2 950.3 1 91
2020-01-09 09:00:00 -0.7 0 Calma 4 Noroeste 0 949.7 0.2 99
2020-01-09 08:00:00 -1.4 3 Norte 7 Noroeste 0 949.6 -0.3 98
2020-01-09 07:00:00 -1.7 4 Nordeste 5 Este 0 949.3 -0.9 96
2020-01-09 06:00:00 -1.9 4 Este 6 Sudeste 0 949.5 -0.9 96
2020-01-09 05:00:00 -0.4 4 Sudeste 7 Sudeste 0 949.9 -0.5 97
2020-01-09 04:00:00 0 4 Nordeste 10 Este 0 950.2 -0.3 97
2020-01-09 03:00:00 0.1 5 Este 10 Este 0 950.4 -0.4 97
2020-01-09 02:00:00 0.7 8 Este 9 Este 0 950.4 -0.6 97
2020-01-09 01:00:00 1.6 7 Sudeste 9 Este 0 950.5 -0.5 95
2020-01-09 00:00:00 3.1 6 Este 9 Este 0 950.8 -0.2 96
2020-01-08 23:00:00 3.7 8 Este 17 Este 0 951 0.1 95
2020-01-08 22:00:00 4.7 12 Este 16 Este 0 951 0.2 95
2020-01-08 21:00:00 5 11 Nordeste 19 Este 0 951 0.5 92
2020-01-08 20:00:00 5.9 14 Este 18 Este 0 950.9 0.5 83
2020-01-08 19:00:00 7.5 10 Nordeste 14 Nordeste 0 950.8 0.3 70
2020-01-08 18:00:00 10.3 8 Nordeste 11 Nordeste 0 950.5 -0.2 60
2020-01-08 17:00:00 12.4 4 Nordeste 11 Nordeste 0 950.4 -0.6 55
2020-01-08 16:00:00 12.9 5 Nordeste 15 Nordeste 0 950.5 -1.1 47
2020-01-08 15:00:00 11.9 9 Nordeste 17 Nordeste 0 950.7 -2 53
2020-01-08 14:00:00 11.8 6 Norte 13 Noroeste 0 951 -1.8 54
2020-01-08 13:00:00 9.7 2 Nordeste 8 Este 0 951.6 -1 66
2020-01-08 12:00:00 7.5 2 Sur 7 Este 0 952.7 0.7 69
2020-01-08 11:00:00 3.9 3 Sudeste 6 Sur 0 952.8 1.3 78
2020-01-08 10:00:00 -0.6 2 Norte 5 Norte 0 952.6 1 90
2020-01-08 09:00:00 -1.8 2 Sur 9 Sudoeste 0 952 0.1 92
2020-01-08 08:00:00 -1 5 Sudoeste 9 Sudoeste 0 951.5 -0.5 92
2020-01-08 07:00:00 -1.8 4 Sudoeste 6 Sudoeste 0 951.6 -0.6 95
2020-01-08 06:00:00 -2.3 2 Sudeste 4 Sur 0 951.9 -0.2 92
2020-01-08 05:00:00 -0.9 0 Calma 9 Sudoeste 0 952 -0.4 89
2020-01-08 04:00:00 -0.5 4 Sur 8 Sudoeste 0 952.2 -0.5 88
2020-01-08 03:00:00 0.1 3 Sudoeste 12 Sudoeste 0 952.1 -0.7 87
2020-01-08 02:00:00 -0.4 4 Sur 8 Sur 0 952.4 -0.4 90
2020-01-08 01:00:00 0.5 0 Calma 7 Sur 0 952.7 -0.2 88
2020-01-08 00:00:00 1.2 3 Sur 8 Sudoeste 0 952.8 0.1 84
2020-01-07 23:00:00 1.7 6 Sur 11 Sudoeste 0 952.8 0 87
2020-01-07 22:00:00 3.7 3 Sudoeste 10 Sudoeste 0 952.9 0.5 83
2020-01-07 21:00:00 5.6 7 Sudoeste 13 Sudoeste 0 952.7 0.2 79
2020-01-07 20:00:00 6 3 Sudoeste 10 Sudoeste 0 952.8 0.5 79
2020-01-07 19:00:00 7.5 5 Oeste 9 Sudoeste 0 952.4 0.2 74
2020-01-07 18:00:00 9.4 4 Oeste 8 Oeste 0 952.5 0 66
2020-01-07 17:00:00 12.2 3 Oeste 12 Noroeste 0 952.3 -0.8 55
2020-01-07 16:00:00 13.8 6 Oeste 13 Oeste 0 952.2 -1.7 48
2020-01-07 15:00:00 13.1 4 Oeste 11 Oeste 0 952.5 -2.2 54
2020-01-07 14:00:00 11.3 4 Noroeste 10 Oeste 0 953.1 -1.5 59
2020-01-07 13:00:00 9.5 5 Oeste 10 Oeste 0 953.9 -0.4 66
2020-01-07 12:00:00 7.1 3 Norte 8 Noroeste 0 954.7 0.7 76
2020-01-07 11:00:00 5.5 3 Norte 8 Norte 0 954.6 1.1 80
2020-01-07 10:00:00 1.6 4 Sudoeste 9 Sur 0 954.3 1 89
2020-01-07 09:00:00 -1 4 Sur 9 Sudoeste 0 954 0.6 95
2020-01-07 08:00:00 -0.8 6 Sudoeste 10 Sudoeste 0 953.5 0.5 96
2020-01-07 07:00:00 -1.8 6 Sudoeste 9 Sudoeste 0 953.3 -0.2 96
2020-01-07 06:00:00 -2.5 5 Norte 7 Norte 0 953.4 0.1 95
2020-01-07 05:00:00 -1 5 Sudoeste 8 Sudoeste 0 953 -0.4 96
2020-01-07 04:00:00 -0.5 3 Oeste 10 Sudoeste 0 953.5 0.3 94
2020-01-07 03:00:00 0.2 4 Sur 10 Sudoeste 0 953.3 0.1 93
2020-01-07 02:00:00 -0.5 6 Sur 9 Sur 0 953.4 0.3 95
2020-01-07 01:00:00 -1.1 3 Sudoeste 6 Sur 0 953.2 0.6 94
2020-01-07 00:00:00 -0.5 5 Sur 8 Sur 0 953.2 1.2 93
2020-01-06 23:00:00 0.2 3 Este 5 Nordeste 0 953.1 1.2 93
2020-01-06 22:00:00 1.3 0 Calma 8 Sudoeste 0 952.6 1.4 90
2020-01-06 21:00:00 2.5 5 Sur 8 Sur 0 952 0.8 87
2020-01-06 20:00:00 3.6 4 Sudoeste 6 Sur 0 951.9 1 85
2020-01-06 19:00:00 5.9 2 Sudoeste 4 Noroeste 0 951.2 0.6 81
2020-01-06 18:00:00 7.8 4 Noroeste 7 Noroeste 0 951.2 0.6 73
2020-01-06 17:00:00 10.5 2 Noroeste 10 Oeste 0 950.9 -0.2 61
2020-01-06 16:00:00 12 5 Oeste 13 Noroeste 0 950.6 -1.2 57
2020-01-06 15:00:00 11 5 Oeste 12 Noroeste 0 950.6 -1.4 59
2020-01-06 14:00:00 9.1 6 Oeste 13 Oeste 0 951.1 -1 67
2020-01-06 13:00:00 8 4 Noroeste 12 Noroeste 0 951.8 -0.3 72
2020-01-06 12:00:00 6.5 4 Sudoeste 9 Sudoeste 0 952 0.6 71
2020-01-06 11:00:00 3.3 4 Sur 9 Sur 0 952.1 1 84
2020-01-06 10:00:00 -0.1 3 Nordeste 6 Sur 0 952.1 1.3 93